createdAt,value
2017-06-01T00:00:59.300Z,8.16
2017-06-01T00:03:28.072Z,6.88
2017-06-01T00:05:56.868Z,9.16
2017-06-01T00:08:25.648Z,8.24
2017-06-01T00:10:54.424Z,8.10
2017-06-01T00:13:23.252Z,7.48
2017-06-01T00:15:52.016Z,8.42
2017-06-01T00:18:20.784Z,9.48
2017-06-01T00:20:50.507Z,9.02
2017-06-01T00:23:20.287Z,8.52
2017-06-01T00:25:50.044Z,8.18
2017-06-01T00:28:19.808Z,9.76
2017-06-01T00:30:48.588Z,7.32
2017-06-01T00:33:17.392Z,8.38
2017-06-01T00:35:46.163Z,8.94
2017-06-01T00:38:14.940Z,9.58
2017-06-01T00:40:43.724Z,9.90
2017-06-01T00:43:12.495Z,8.52
2017-06-01T00:45:41.271Z,9.04
2017-06-01T00:48:10.087Z,8.97
2017-06-01T00:50:38.863Z,8.90
2017-06-01T00:53:07.635Z,9.60
2017-06-01T00:55:36.423Z,9.70
2017-06-01T00:58:05.207Z,9.02
2017-06-01T01:00:33.987Z,8.60
2017-06-01T01:03:02.787Z,8.55
2017-06-01T01:05:31.575Z,10.03
2017-06-01T01:08:00.375Z,8.32
2017-06-01T01:10:29.167Z,9.48
2017-06-01T01:12:57.951Z,8.27
2017-06-01T01:15:27.695Z,7.98
2017-06-01T01:17:56.547Z,8.75
2017-06-01T01:20:25.347Z,8.85
2017-06-01T01:22:54.127Z,9.98
2017-06-01T01:25:24.923Z,8.90
2017-06-01T01:27:53.695Z,11.32
2017-06-01T01:30:22.471Z,8.63
2017-06-01T01:32:51.269Z,8.23
2017-06-01T01:35:20.043Z,8.60
2017-06-01T01:37:48.843Z,7.45
2017-06-01T01:40:17.619Z,8.47
2017-06-01T01:42:46.407Z,8.78
2017-06-01T01:45:15.187Z,9.67
2017-06-01T01:47:44.006Z,6.80
2017-06-01T01:50:12.787Z,6.85
2017-06-01T01:52:45.587Z,7.38
2017-06-01T01:55:14.362Z,7.58
2017-06-01T01:57:43.134Z,6.48
2017-06-01T02:00:11.931Z,5.98
2017-06-01T02:02:40.719Z,6.15
2017-06-01T02:05:09.495Z,8.05
2017-06-01T02:07:38.303Z,8.27
2017-06-01T02:10:07.075Z,7.75
2017-06-01T02:12:35.850Z,8.50
2017-06-01T02:15:05.563Z,7.88
2017-06-01T02:17:34.351Z,7.67
2017-06-01T02:20:03.201Z,8.10
2017-06-01T02:22:31.146Z,7.52
2017-06-01T02:24:59.922Z,6.67
2017-06-01T02:27:30.626Z,6.45
2017-06-01T02:29:59.454Z,5.42
2017-06-01T02:32:29.226Z,6.24
2017-06-01T02:34:58.009Z,7.12
2017-06-01T02:37:27.746Z,7.07
2017-06-01T02:39:56.523Z,11.20
2017-06-01T02:42:25.310Z,8.17
2017-06-01T02:44:54.106Z,7.33
2017-06-01T02:47:23.802Z,7.98
2017-06-01T02:49:52.578Z,7.60
2017-06-01T02:52:22.334Z,7.02
2017-06-01T02:54:51.121Z,6.98
2017-06-01T02:57:19.894Z,7.63
2017-06-01T02:59:48.678Z,6.05
2017-06-01T03:02:17.498Z,6.60
2017-06-01T03:04:46.386Z,6.95
2017-06-01T03:07:15.170Z,6.78
2017-06-01T03:09:43.938Z,7.38
2017-06-01T03:12:13.718Z,8.37
2017-06-01T03:14:42.553Z,7.77
2017-06-01T03:17:12.325Z,7.75
2017-06-01T03:19:41.157Z,7.37
2017-06-01T03:22:09.933Z,7.55
2017-06-01T03:24:38.749Z,8.60
2017-06-01T03:27:07.625Z,10.75
2017-06-01T03:29:36.516Z,8.80
2017-06-01T03:32:05.290Z,8.50
2017-06-01T03:34:34.081Z,9.22
2017-06-01T03:37:03.026Z,8.45
2017-06-01T03:39:31.813Z,10.03
2017-06-01T03:42:00.593Z,9.47
2017-06-01T03:44:29.421Z,8.62
2017-06-01T03:46:58.207Z,9.05
2017-06-01T03:49:26.973Z,8.82
2017-06-01T03:51:55.777Z,8.92
2017-06-01T03:54:24.573Z,9.35
2017-06-01T03:56:53.393Z,9.38
2017-06-01T03:59:22.197Z,7.52
2017-06-01T04:01:50.970Z,8.63
2017-06-01T04:04:19.741Z,8.95
2017-06-01T04:06:48.645Z,10.62
2017-06-01T04:09:19.909Z,7.77
2017-06-01T04:11:50.013Z,8.10
2017-06-01T04:14:19.693Z,15.47
2017-06-01T04:16:48.913Z,8.08
2017-06-01T04:19:17.817Z,8.30
2017-06-01T04:21:46.685Z,9.82
2017-06-01T04:24:15.472Z,8.63
2017-06-01T04:26:44.369Z,9.20
2017-06-01T04:29:13.257Z,8.38
2017-06-01T04:31:42.029Z,7.88
2017-06-01T04:34:10.829Z,7.03
2017-06-01T04:36:39.601Z,7.77
2017-06-01T04:39:08.384Z,8.83
2017-06-01T04:41:37.176Z,10.42
2017-06-01T04:44:05.956Z,9.28
2017-06-01T04:46:34.736Z,9.20
2017-06-01T04:49:03.556Z,9.62
2017-06-01T04:51:32.441Z,9.72
2017-06-01T04:54:01.240Z,12.26
2017-06-01T04:56:30.056Z,14.17
2017-06-01T04:58:59.308Z,11.74
2017-06-01T05:01:28.092Z,14.32
2017-06-01T05:03:57.368Z,13.10
2017-06-01T05:06:26.148Z,13.70
2017-06-01T05:08:54.932Z,13.78
2017-06-01T05:11:23.877Z,12.86
2017-06-01T05:13:52.668Z,12.08
2017-06-01T05:16:21.456Z,17.84
2017-06-01T05:18:50.352Z,12.86
2017-06-01T05:21:19.232Z,12.26
2017-06-01T05:23:48.016Z,12.90
2017-06-01T05:26:16.820Z,11.38
2017-06-01T05:28:45.712Z,10.02
2017-06-01T05:31:14.624Z,8.82
2017-06-01T05:33:43.404Z,9.86
2017-06-01T05:36:12.264Z,7.98
2017-06-01T05:38:41.036Z,8.02
2017-06-01T05:41:09.832Z,5.76
2017-06-01T05:43:38.635Z,6.68
2017-06-01T05:46:07.495Z,6.92
2017-06-01T05:48:36.300Z,6.04
2017-06-01T05:51:05.080Z,10.16
2017-06-01T05:53:33.851Z,6.26
2017-06-01T05:56:02.628Z,5.40
2017-06-01T05:58:31.472Z,5.90
2017-06-01T06:01:00.355Z,5.92
2017-06-01T06:03:29.156Z,4.90
2017-06-01T06:05:58.028Z,5.54
2017-06-01T06:08:26.787Z,5.50
2017-06-01T06:10:55.592Z,5.22
2017-06-01T06:13:24.379Z,4.90
2017-06-01T06:15:54.077Z,5.48
2017-06-01T06:18:22.879Z,4.78
2017-06-01T06:20:51.647Z,7.20
2017-06-01T06:23:20.456Z,4.96
2017-06-01T06:25:49.340Z,4.92
2017-06-01T06:28:18.127Z,6.12
2017-06-01T06:30:47.012Z,7.30
2017-06-01T06:33:15.804Z,7.56
2017-06-01T06:35:44.580Z,4.48
2017-06-01T06:38:13.347Z,4.14
2017-06-01T06:40:42.135Z,7.02
2017-06-01T06:43:10.899Z,3.90
2017-06-01T06:45:40.224Z,5.18
2017-06-01T06:48:09.039Z,4.72
2017-06-01T06:50:37.795Z,5.36
2017-06-01T06:53:06.559Z,4.46
2017-06-01T06:55:35.403Z,3.92
2017-06-01T06:58:04.179Z,6.22
2017-06-01T07:00:32.943Z,4.54
2017-06-01T07:03:01.720Z,4.26
2017-06-01T07:05:30.491Z,3.86
2017-06-01T07:07:59.251Z,5.44
2017-06-01T07:10:28.059Z,4.20
2017-06-01T07:12:56.814Z,4.30
2017-06-01T07:15:25.590Z,3.92
2017-06-01T07:17:54.379Z,3.82
2017-06-01T07:20:23.175Z,4.52
2017-06-01T07:22:51.939Z,6.18
2017-06-01T07:25:20.731Z,5.24
2017-06-01T07:27:49.495Z,4.02
2017-06-01T07:30:18.255Z,5.00
2017-06-01T07:32:47.100Z,3.84
2017-06-01T07:35:15.805Z,4.50
2017-06-01T07:37:44.562Z,4.16
2017-06-01T07:40:13.331Z,5.52
2017-06-01T07:42:42.091Z,4.72
2017-06-01T07:45:10.850Z,5.84
2017-06-01T07:47:39.731Z,5.14
2017-06-01T07:50:08.462Z,3.90
2017-06-01T07:52:37.224Z,2.96
2017-06-01T07:55:05.990Z,4.62
2017-06-01T07:57:34.766Z,2.90
2017-06-01T08:00:03.538Z,2.90
2017-06-01T08:02:32.334Z,3.40
2017-06-01T08:05:01.095Z,3.32
2017-06-01T08:07:29.854Z,6.36
2017-06-01T08:09:58.622Z,4.36
2017-06-01T08:12:27.386Z,3.12
2017-06-01T08:14:56.147Z,3.16
2017-06-01T08:17:24.918Z,3.28
2017-06-01T08:19:53.682Z,3.10
2017-06-01T08:22:22.446Z,2.88
2017-06-01T08:24:51.222Z,3.10
2017-06-01T08:27:19.978Z,3.28
2017-06-01T08:29:48.742Z,2.98
2017-06-01T08:32:17.518Z,4.12
2017-06-01T08:34:46.286Z,4.40
2017-06-01T08:37:15.045Z,4.16
2017-06-01T08:39:43.838Z,2.98
2017-06-01T08:42:12.646Z,6.08
2017-06-01T08:44:41.434Z,3.10
2017-06-01T08:47:10.182Z,5.12
2017-06-01T08:49:39.014Z,2.98
2017-06-01T08:52:07.746Z,3.60
2017-06-01T08:54:36.522Z,2.42
2017-06-01T08:57:05.282Z,4.10
2017-06-01T08:59:34.048Z,2.52
2017-06-01T09:02:02.821Z,4.92
2017-06-01T09:04:31.585Z,6.62
2017-06-01T09:07:00.350Z,2.62
2017-06-01T09:09:29.142Z,4.26
2017-06-01T09:11:57.913Z,2.96
2017-06-01T09:14:26.670Z,2.92
2017-06-01T09:16:55.478Z,3.00
2017-06-01T09:19:24.257Z,3.32
2017-06-01T09:21:53.005Z,2.64
2017-06-01T09:24:21.773Z,4.98
2017-06-01T09:26:50.538Z,2.90
2017-06-01T09:29:19.306Z,2.88
2017-06-01T09:31:48.113Z,2.70
2017-06-01T09:34:16.878Z,3.94
2017-06-01T09:36:45.649Z,2.80
2017-06-01T09:39:13.661Z,2.78
2017-06-01T09:41:42.425Z,4.24
2017-06-01T09:44:11.185Z,2.90
2017-06-01T09:46:40.004Z,3.00
2017-06-01T09:49:08.769Z,2.78
2017-06-01T09:51:37.541Z,3.10
2017-06-01T09:54:06.325Z,2.94
2017-06-01T09:56:35.089Z,2.98
2017-06-01T09:59:03.853Z,2.54
2017-06-01T10:01:32.664Z,3.60
2017-06-01T10:04:01.428Z,6.12
2017-06-01T10:06:30.197Z,2.88
2017-06-01T10:08:58.976Z,2.60
2017-06-01T10:11:27.773Z,3.10
2017-06-01T10:13:56.512Z,2.52
2017-06-01T10:16:25.300Z,2.70
2017-06-01T10:18:53.310Z,2.90
2017-06-01T10:21:22.076Z,2.62
2017-06-01T10:23:51.796Z,3.14
2017-06-01T10:26:20.565Z,3.82
2017-06-01T10:28:49.340Z,2.30
2017-06-01T10:31:18.124Z,3.78
2017-06-01T10:33:46.892Z,4.20
2017-06-01T10:36:15.661Z,2.72
2017-06-01T10:38:44.456Z,2.88
2017-06-01T10:41:13.228Z,2.42
2017-06-01T10:43:41.992Z,2.72
2017-06-01T10:46:10.788Z,2.58
2017-06-01T10:48:39.556Z,3.66
2017-06-01T10:51:08.348Z,2.72
2017-06-01T10:53:37.145Z,2.50
2017-06-01T10:56:05.912Z,2.32
2017-06-01T10:58:34.676Z,2.58
2017-06-01T11:01:03.472Z,2.52
2017-06-01T11:03:32.316Z,3.50
2017-06-01T11:06:01.060Z,2.78
2017-06-01T11:08:29.860Z,3.98
2017-06-01T11:10:58.627Z,3.40
2017-06-01T11:13:27.464Z,2.38
2017-06-01T11:15:56.231Z,3.58
2017-06-01T11:18:25.004Z,3.66
2017-06-01T11:20:53.748Z,3.40
2017-06-01T11:23:22.528Z,3.18
2017-06-01T11:25:51.295Z,2.68
2017-06-01T11:28:20.060Z,7.88
2017-06-01T11:30:48.852Z,2.68
2017-06-01T11:33:17.619Z,2.06
2017-06-01T11:35:46.384Z,4.06
2017-06-01T11:38:15.184Z,3.52
2017-06-01T11:40:43.952Z,2.80
2017-06-01T11:43:12.727Z,2.36
2017-06-01T11:45:41.503Z,3.16
2017-06-01T11:48:10.272Z,3.12
2017-06-01T11:50:39.035Z,3.38
2017-06-01T11:53:07.827Z,2.76
2017-06-01T11:55:36.591Z,2.50
2017-06-01T11:58:05.355Z,2.66
2017-06-01T12:00:34.144Z,2.62
2017-06-01T12:03:03.012Z,3.70
2017-06-01T12:05:31.759Z,3.20
2017-06-01T12:08:00.551Z,2.54
2017-06-01T12:10:29.315Z,3.36
2017-06-01T12:12:58.087Z,2.38
2017-06-01T12:15:26.868Z,2.48
2017-06-01T12:17:55.635Z,2.24
2017-06-01T12:20:24.404Z,2.28
2017-06-01T12:22:53.187Z,2.36
2017-06-01T12:25:21.947Z,2.20
2017-06-01T12:27:50.715Z,3.06
2017-06-01T12:30:19.515Z,3.64
2017-06-01T12:32:48.279Z,6.32
2017-06-01T12:35:17.063Z,2.40
2017-06-01T12:37:45.856Z,2.78
2017-06-01T12:40:14.620Z,3.00
2017-06-01T12:42:43.404Z,2.62
2017-06-01T12:45:12.199Z,5.72
2017-06-01T12:47:40.964Z,2.54
2017-06-01T12:50:09.723Z,2.48
2017-06-01T12:52:38.512Z,2.46
2017-06-01T12:55:07.271Z,3.42
2017-06-01T12:57:36.034Z,4.20
2017-06-01T13:00:09.527Z,3.74
2017-06-01T13:02:38.299Z,3.24
2017-06-01T13:05:07.067Z,2.40
2017-06-01T13:07:35.846Z,2.36
2017-06-01T13:10:04.611Z,2.40
2017-06-01T13:12:33.379Z,2.22
2017-06-01T13:15:02.379Z,2.46
2017-06-01T13:17:31.146Z,2.30
2017-06-01T13:19:59.910Z,2.56
2017-06-01T13:22:28.723Z,2.38
2017-06-01T13:24:57.438Z,2.40
2017-06-01T13:27:26.206Z,3.12
2017-06-01T13:29:54.990Z,3.00
2017-06-01T13:32:23.755Z,2.28
2017-06-01T13:34:52.526Z,2.14
2017-06-01T13:37:21.314Z,2.62
2017-06-01T13:39:50.079Z,2.66
2017-06-01T13:42:18.842Z,3.58
2017-06-01T13:44:47.634Z,4.48
2017-06-01T13:47:16.407Z,4.06
2017-06-01T13:49:45.222Z,2.14
2017-06-01T13:52:13.939Z,2.38
2017-06-01T13:54:42.706Z,2.50
2017-06-01T13:57:11.471Z,2.86
2017-06-01T13:59:40.242Z,2.18
2017-06-01T14:02:09.122Z,2.86
2017-06-01T14:04:37.850Z,2.14
2017-06-01T14:07:06.619Z,3.56
2017-06-01T14:09:36.366Z,2.16
2017-06-01T14:12:05.128Z,2.10
2017-06-01T14:14:34.042Z,3.54
2017-06-01T14:17:02.814Z,2.30
2017-06-01T14:19:31.574Z,3.14
2017-06-01T14:22:00.346Z,2.78
2017-06-01T14:24:29.118Z,2.12
2017-06-01T14:26:57.878Z,5.02
2017-06-01T14:29:26.713Z,4.78
2017-06-01T14:31:55.414Z,2.04
2017-06-01T14:34:24.178Z,2.92
2017-06-01T14:36:52.954Z,2.44
2017-06-01T14:39:21.722Z,3.14
2017-06-01T14:41:50.482Z,2.14
2017-06-01T14:44:19.278Z,2.14
2017-06-01T14:46:48.050Z,3.18
2017-06-01T14:49:16.834Z,2.12
2017-06-01T14:51:45.606Z,2.20
2017-06-01T14:54:14.365Z,2.50
2017-06-01T14:56:43.126Z,5.54
2017-06-01T14:59:11.898Z,4.20
2017-06-01T15:01:40.658Z,5.28
2017-06-01T15:04:09.431Z,2.46
2017-06-01T15:06:38.241Z,2.14
2017-06-01T15:09:07.009Z,2.48
2017-06-01T15:11:35.778Z,2.24
2017-06-01T15:14:04.569Z,2.18
2017-06-01T15:16:33.337Z,1.90
2017-06-01T15:19:02.113Z,2.80
2017-06-01T15:21:31.041Z,2.62
2017-06-01T15:23:59.765Z,2.72
2017-06-01T15:26:28.540Z,2.50
2017-06-01T15:28:57.405Z,2.00
2017-06-01T15:31:26.168Z,2.30
2017-06-01T15:33:54.945Z,2.34
2017-06-01T15:36:23.870Z,2.62
2017-06-01T15:38:52.590Z,2.60
2017-06-01T15:41:21.360Z,3.54
2017-06-01T15:43:50.149Z,2.06
2017-06-01T15:46:18.920Z,2.80
2017-06-01T15:48:47.693Z,2.10
2017-06-01T15:51:16.477Z,3.46
2017-06-01T15:53:45.237Z,3.04
2017-06-01T15:56:13.997Z,2.12
2017-06-01T15:58:42.785Z,4.78
2017-06-01T16:17:12.380Z,10.08
2017-06-01T16:19:41.185Z,3.40
2017-06-01T16:22:09.960Z,19.54
2017-06-01T16:24:38.765Z,2.34
2017-06-01T16:27:07.512Z,2.46
2017-06-01T16:29:36.284Z,2.72
2017-06-01T16:32:05.061Z,4.78
2017-06-01T16:34:33.820Z,2.72
2017-06-01T16:37:02.588Z,2.24
2017-06-01T16:39:31.368Z,2.46
2017-06-01T16:42:00.145Z,2.22
2017-06-01T16:44:28.904Z,2.30
2017-06-01T16:46:57.704Z,2.30
2017-06-01T16:49:26.476Z,2.50
2017-06-01T16:51:55.505Z,2.52
2017-06-01T16:54:24.272Z,2.66
2017-06-01T16:56:53.040Z,5.54
2017-06-01T17:11:58.359Z,3.10
2017-06-01T17:14:27.131Z,3.32
2017-06-01T17:16:55.907Z,3.68
2017-06-01T17:19:24.691Z,2.44
2017-06-01T17:21:53.461Z,2.66
2017-06-01T17:24:22.232Z,2.24
2017-06-01T17:26:51.018Z,3.42
2017-06-01T17:29:19.789Z,2.82
2017-06-01T17:31:48.568Z,2.72
2017-06-01T17:34:17.375Z,2.66
2017-06-01T17:36:46.112Z,4.10
2017-06-01T17:39:14.879Z,2.50
2017-06-01T17:41:43.652Z,4.76
2017-06-01T17:44:12.415Z,2.32
2017-06-01T17:46:41.188Z,2.76
2017-06-01T17:49:09.999Z,3.50
2017-06-01T17:51:38.731Z,3.10
2017-06-01T17:54:07.495Z,5.84
2017-06-01T17:56:36.279Z,2.78
2017-06-01T17:59:05.056Z,2.14
2017-06-01T18:01:33.815Z,2.52
2017-06-01T18:04:02.603Z,4.02
2017-06-01T18:06:31.379Z,2.92
2017-06-01T18:09:00.151Z,2.36
2017-06-01T18:11:28.948Z,2.62
2017-06-01T18:13:57.791Z,3.04
2017-06-01T18:16:26.559Z,2.44
2017-06-01T18:18:55.339Z,2.90
2017-06-01T18:21:24.103Z,3.02
2017-06-01T18:23:52.911Z,5.52
2017-06-01T18:26:21.703Z,2.44
2017-06-01T18:28:50.487Z,3.46
2017-06-01T18:31:19.251Z,3.32
2017-06-01T18:33:48.051Z,3.14
2017-06-01T18:36:16.823Z,3.70
2017-06-01T18:38:45.604Z,2.66
2017-06-01T18:41:14.391Z,5.00
2017-06-01T18:43:43.147Z,5.36
2017-06-01T18:46:11.911Z,1.98
2017-06-01T18:48:40.698Z,4.44
2017-06-01T18:51:09.466Z,6.06
2017-06-01T18:53:38.238Z,3.88
2017-06-01T18:56:07.038Z,4.00
2017-06-01T18:58:35.847Z,3.50
2017-06-01T19:01:04.646Z,4.08
2017-06-01T19:03:33.439Z,2.38
2017-06-01T19:06:02.211Z,3.46
2017-06-01T19:08:30.978Z,2.74
2017-06-01T19:10:59.751Z,3.12
2017-06-01T19:13:29.382Z,2.00
2017-06-01T19:15:58.179Z,2.82
2017-06-01T19:18:26.974Z,2.70
2017-06-01T19:20:55.735Z,3.38
2017-06-01T19:23:24.511Z,3.88
2017-06-01T19:25:53.279Z,3.24
2017-06-01T19:28:22.106Z,2.24
2017-06-01T19:30:50.854Z,2.24
2017-06-01T19:33:19.634Z,2.50
2017-06-01T19:35:48.394Z,2.24
2017-06-01T19:38:17.990Z,4.36
2017-06-01T19:40:46.782Z,3.06
2017-06-01T19:43:15.558Z,2.48
2017-06-01T19:45:45.218Z,3.52
2017-06-01T19:48:14.010Z,3.30
2017-06-01T20:12:53.001Z,4.50
2017-06-01T20:15:22.774Z,3.86
2017-06-01T20:17:51.550Z,4.38
2017-06-01T20:20:20.329Z,4.16
2017-06-01T20:22:49.106Z,3.52
2017-06-01T20:25:17.871Z,6.86
2017-06-01T20:27:46.669Z,3.76
2017-06-01T20:30:15.434Z,4.70
2017-06-01T20:32:46.125Z,3.54
2017-06-01T20:35:14.941Z,4.62
2017-06-01T20:37:43.710Z,3.44
2017-06-01T20:40:12.517Z,3.20
2017-06-01T20:42:41.289Z,3.02
2017-06-01T20:45:10.066Z,5.44
2017-06-01T20:47:38.853Z,3.40
2017-06-01T20:50:07.637Z,3.30
2017-06-01T20:52:36.429Z,2.92
2017-06-01T20:55:05.181Z,3.00
2017-06-01T20:57:33.957Z,4.46
2017-06-01T21:00:02.769Z,5.28
2017-06-01T21:02:31.529Z,4.34
2017-06-01T21:05:00.305Z,4.94
2017-06-01T21:07:32.505Z,2.68
2017-06-01T21:10:01.313Z,2.44
2017-06-01T21:12:30.089Z,3.98
2017-06-01T21:14:58.869Z,4.36
2017-06-01T21:17:30.417Z,9.88
2017-06-01T21:19:59.201Z,4.42
2017-06-01T21:22:27.989Z,4.50
2017-06-01T21:24:56.800Z,4.94
2017-06-01T21:27:25.601Z,4.14
2017-06-01T21:29:54.372Z,4.24
2017-06-01T21:32:23.177Z,3.88
2017-06-01T21:34:51.977Z,3.10
2017-06-01T21:37:20.765Z,3.22
2017-06-01T21:39:50.469Z,3.38
2017-06-01T21:42:21.164Z,4.18
2017-06-01T21:44:49.933Z,4.46
2017-06-01T21:47:18.705Z,5.10
2017-06-01T21:49:47.525Z,4.40
2017-06-01T21:52:16.313Z,6.44
2017-06-01T21:54:45.077Z,6.24
2017-06-01T21:57:13.864Z,4.80
2017-06-01T21:59:42.641Z,4.46
2017-06-01T22:02:11.404Z,4.42
2017-06-01T22:04:40.185Z,4.14
2017-06-01T22:07:13.892Z,3.48
2017-06-01T22:09:42.680Z,5.94
2017-06-01T22:12:13.356Z,5.08
2017-06-01T22:14:42.146Z,4.70
2017-06-01T22:17:10.916Z,5.06
2017-06-01T22:19:42.744Z,7.38
2017-06-01T22:22:11.516Z,8.76
2017-06-01T22:24:40.296Z,6.20
2017-06-01T22:27:09.100Z,5.74
2017-06-01T22:29:37.872Z,6.34
2017-06-01T22:32:06.648Z,5.08
2017-06-01T22:34:35.449Z,4.84
2017-06-01T22:37:04.228Z,4.92
2017-06-01T22:39:33.009Z,5.34
2017-06-01T22:42:01.812Z,5.00
2017-06-01T22:44:30.597Z,4.66
2017-06-01T22:46:59.364Z,4.42
2017-06-01T22:49:29.076Z,6.02
2017-06-01T22:51:58.743Z,10.36
2017-06-01T22:54:27.516Z,5.40
2017-06-01T22:56:56.304Z,4.88
2017-06-01T22:59:25.079Z,5.54
2017-06-01T23:01:53.859Z,5.52
2017-06-01T23:04:23.615Z,7.90
2017-06-01T23:06:55.840Z,6.12
2017-06-01T23:09:25.543Z,6.32
2017-06-01T23:11:54.327Z,5.70
2017-06-01T23:14:23.099Z,5.20
2017-06-01T23:16:54.943Z,6.10
2017-06-01T23:19:23.711Z,5.72
2017-06-01T23:21:53.523Z,5.16
2017-06-01T23:24:22.299Z,5.74
2017-06-01T23:26:53.055Z,5.54
2017-06-01T23:29:22.779Z,5.54
2017-06-01T23:31:53.259Z,6.72
2017-06-01T23:34:25.455Z,5.90
2017-06-01T23:36:55.159Z,5.34
2017-06-01T23:39:25.919Z,8.46
2017-06-01T23:42:00.603Z,5.54
2017-06-01T23:44:30.359Z,5.72
2017-06-01T23:46:59.131Z,5.02
2017-06-01T23:49:27.907Z,5.64
2017-06-01T23:52:03.495Z,6.32
2017-06-01T23:54:32.275Z,6.60
2017-06-01T23:57:01.055Z,5.56
2017-06-01T23:59:33.399Z,6.00
